createdAt,value
2023-02-06T00:01:24.811Z,2.16
2023-02-06T00:03:51.442Z,2.16
2023-02-06T00:06:18.350Z,2.14
2023-02-06T00:08:44.810Z,2.15
2023-02-06T00:11:13.930Z,2.16
2023-02-06T00:13:40.357Z,2.18
2023-02-06T00:16:15.755Z,2.15
2023-02-06T00:18:42.219Z,2.12
2023-02-06T00:21:08.816Z,2.12
2023-02-06T00:23:35.280Z,2.15
2023-02-06T00:26:01.731Z,2.16
2023-02-06T00:28:28.786Z,2.17
2023-02-06T00:30:56.957Z,2.21
2023-02-06T00:33:23.586Z,2.21
2023-02-06T00:35:49.964Z,2.24
2023-02-06T00:38:16.380Z,2.23
2023-02-06T00:40:44.215Z,2.18
2023-02-06T00:43:10.640Z,2.15
2023-02-06T00:45:37.187Z,2.14
2023-02-06T00:48:03.847Z,2.14
2023-02-06T00:50:30.277Z,2.16
2023-02-06T00:52:56.683Z,2.18
2023-02-06T00:55:23.161Z,2.18
2023-02-06T00:57:49.615Z,2.06
2023-02-06T01:00:16.747Z,2.03
2023-02-06T01:02:43.217Z,2.03
2023-02-06T01:05:10.019Z,2.01
2023-02-06T01:07:39.155Z,2.00
2023-02-06T01:10:08.316Z,1.96
2023-02-06T01:12:36.202Z,1.95
2023-02-06T01:15:07.025Z,1.94
2023-02-06T01:17:34.208Z,1.96
2023-02-06T01:20:00.978Z,2.00
2023-02-06T01:22:27.489Z,2.03
2023-02-06T01:24:54.032Z,2.08
2023-02-06T01:27:20.479Z,2.08
2023-02-06T01:29:46.864Z,2.09
2023-02-06T01:32:13.268Z,2.07
2023-02-06T01:34:39.680Z,2.01
2023-02-06T01:37:06.130Z,1.96
2023-02-06T01:39:33.073Z,2.03
2023-02-06T01:41:59.604Z,2.06
2023-02-06T01:44:26.359Z,2.06
2023-02-06T01:46:56.117Z,2.09
2023-02-06T01:49:30.446Z,2.09
2023-02-06T01:52:07.824Z,2.07
2023-02-06T01:54:34.966Z,2.11
2023-02-06T01:57:05.874Z,2.11
2023-02-06T01:59:33.571Z,2.12
2023-02-06T02:01:59.998Z,2.04
2023-02-06T02:04:28.792Z,2.01
2023-02-06T02:07:26.218Z,2.03
2023-02-06T02:09:53.350Z,2.00
2023-02-06T02:12:20.413Z,1.92
2023-02-06T02:14:48.786Z,1.92
2023-02-06T02:17:38.170Z,1.95
2023-02-06T02:20:38.729Z,1.93
2023-02-06T02:23:29.585Z,1.88
2023-02-06T02:26:08.116Z,1.87
2023-02-06T02:29:11.928Z,1.90
2023-02-06T02:31:44.075Z,1.92
2023-02-06T02:34:47.517Z,1.93
2023-02-06T02:37:27.730Z,1.92
2023-02-06T02:40:27.174Z,1.92
2023-02-06T02:43:04.783Z,1.93
2023-02-06T02:45:37.628Z,1.94
2023-02-06T02:48:27.565Z,1.93
2023-02-06T02:50:55.429Z,1.92
2023-02-06T02:53:22.369Z,1.90
2023-02-06T02:55:48.943Z,1.90
2023-02-06T02:58:21.453Z,1.90
2023-02-06T03:00:56.335Z,1.89
2023-02-06T03:03:26.020Z,1.81
2023-02-06T03:06:26.637Z,1.81
2023-02-06T03:08:58.310Z,1.81
2023-02-06T03:11:25.289Z,1.78
2023-02-06T03:14:05.943Z,1.78
2023-02-06T03:16:45.765Z,1.78
2023-02-06T03:19:16.813Z,1.77
2023-02-06T03:21:45.685Z,1.72
2023-02-06T03:24:20.500Z,1.69
2023-02-06T03:26:50.955Z,1.57
2023-02-06T03:29:18.810Z,1.53
2023-02-06T03:31:52.328Z,1.50
2023-02-06T03:34:43.483Z,1.48
2023-02-06T03:37:10.719Z,1.45
2023-02-06T03:39:37.645Z,1.46
2023-02-06T03:42:05.979Z,1.48
2023-02-06T03:44:36.313Z,1.49
2023-02-06T03:47:04.733Z,1.49
2023-02-06T03:49:33.276Z,1.52
2023-02-06T03:52:05.736Z,1.55
2023-02-06T03:54:36.122Z,1.57
2023-02-06T03:57:10.303Z,1.58
2023-02-06T03:59:36.710Z,1.58
2023-02-06T04:02:04.819Z,1.61
2023-02-06T04:04:40.108Z,1.61
2023-02-06T04:07:19.711Z,1.60
2023-02-06T04:09:46.192Z,1.59
2023-02-06T04:12:12.657Z,1.60
2023-02-06T04:14:39.443Z,1.59
2023-02-06T04:17:06.345Z,1.54
2023-02-06T04:19:33.481Z,1.49
2023-02-06T04:21:59.932Z,1.41
2023-02-06T04:24:26.311Z,1.42
2023-02-06T04:26:52.970Z,1.34
2023-02-06T04:29:19.590Z,1.33
2023-02-06T04:31:46.947Z,1.28
2023-02-06T04:34:13.346Z,1.24
2023-02-06T04:36:39.765Z,1.24
2023-02-06T04:39:07.124Z,1.21
2023-02-06T04:41:34.239Z,1.18
2023-02-06T04:44:00.941Z,1.23
2023-02-06T04:46:27.389Z,1.24
2023-02-06T04:48:53.774Z,1.22
2023-02-06T04:51:20.173Z,1.23
2023-02-06T04:53:46.557Z,1.21
2023-02-06T04:56:13.036Z,1.21
2023-02-06T04:58:39.684Z,1.22
2023-02-06T05:01:06.774Z,1.19
2023-02-06T05:03:33.495Z,1.24
2023-02-06T05:06:01.277Z,1.23
2023-02-06T05:08:27.762Z,1.21
2023-02-06T05:10:55.145Z,1.23
2023-02-06T05:13:21.812Z,1.21
2023-02-06T05:15:48.263Z,1.20
2023-02-06T05:18:15.672Z,1.18
2023-02-06T05:20:42.812Z,1.22
2023-02-06T05:23:09.600Z,1.20
2023-02-06T05:25:37.116Z,1.23
2023-02-06T05:28:06.492Z,1.16
2023-02-06T05:30:34.359Z,1.14
2023-02-06T05:33:00.855Z,1.12
2023-02-06T05:35:27.936Z,1.13
2023-02-06T05:37:54.314Z,1.12
2023-02-06T05:40:20.874Z,1.16
2023-02-06T05:42:47.312Z,1.18
2023-02-06T05:45:13.742Z,1.18
2023-02-06T05:47:40.185Z,1.16
2023-02-06T05:50:06.995Z,1.10
2023-02-06T05:52:33.477Z,1.05
2023-02-06T05:54:59.878Z,1.01
2023-02-06T05:57:26.261Z,1.03
2023-02-06T05:59:52.713Z,1.04
2023-02-06T06:02:19.114Z,1.09
2023-02-06T06:04:45.719Z,1.08
2023-02-06T06:07:12.180Z,1.09
2023-02-06T06:09:38.599Z,1.08
2023-02-06T06:12:05.165Z,1.04
2023-02-06T06:14:31.611Z,1.01
2023-02-06T06:16:58.004Z,0.95
2023-02-06T06:19:24.444Z,0.96
2023-02-06T06:21:50.988Z,0.97
2023-02-06T06:24:17.420Z,0.98
2023-02-06T06:26:43.847Z,0.98
2023-02-06T06:29:10.277Z,0.95
2023-02-06T06:31:36.687Z,0.92
2023-02-06T06:34:03.362Z,0.91
2023-02-06T06:36:29.780Z,0.89
2023-02-06T06:38:56.235Z,0.85
2023-02-06T06:41:22.721Z,0.87
2023-02-06T06:43:51.292Z,0.88
2023-02-06T06:46:18.873Z,0.86
2023-02-06T06:48:45.278Z,0.89
2023-02-06T06:51:11.680Z,0.96
2023-02-06T06:53:40.034Z,0.98
2023-02-06T06:56:08.540Z,0.92
2023-02-06T06:58:34.928Z,0.94
2023-02-06T07:01:01.513Z,0.92
2023-02-06T07:03:28.001Z,0.98
2023-02-06T07:05:54.440Z,1.02
2023-02-06T07:08:20.900Z,1.00
2023-02-06T07:10:48.018Z,0.98
2023-02-06T07:13:15.580Z,0.97
2023-02-06T07:15:42.821Z,0.93
2023-02-06T07:18:11.629Z,0.90
2023-02-06T07:20:38.398Z,0.93
2023-02-06T07:23:06.062Z,0.99
2023-02-06T07:25:33.281Z,0.86
2023-02-06T07:27:59.782Z,0.99
2023-02-06T07:30:26.247Z,0.97
2023-02-06T07:32:52.732Z,1.01
2023-02-06T07:35:19.311Z,0.97
2023-02-06T07:37:45.700Z,0.94
2023-02-06T07:40:12.635Z,0.95
2023-02-06T07:42:40.163Z,0.95
2023-02-06T07:45:19.672Z,0.97
2023-02-06T07:47:46.057Z,1.04
2023-02-06T07:50:12.522Z,1.08
2023-02-06T07:52:38.931Z,1.11
2023-02-06T07:55:05.716Z,1.15
2023-02-06T07:57:32.119Z,1.15
2023-02-06T07:59:58.509Z,1.15
2023-02-06T08:02:24.962Z,1.16
2023-02-06T08:04:51.389Z,1.24
2023-02-06T08:07:18.090Z,1.34
2023-02-06T08:09:44.624Z,1.41
2023-02-06T08:12:12.063Z,1.44
2023-02-06T08:14:38.590Z,1.47
2023-02-06T08:17:05.739Z,1.44
2023-02-06T08:19:32.134Z,1.52
2023-02-06T08:21:58.598Z,1.53
2023-02-06T08:24:25.041Z,1.60
2023-02-06T08:26:51.465Z,1.67
2023-02-06T08:29:17.849Z,1.74
2023-02-06T08:31:44.344Z,1.78
2023-02-06T08:34:14.943Z,1.84
2023-02-06T08:36:43.619Z,1.81
2023-02-06T08:39:13.761Z,1.71
2023-02-06T08:41:42.634Z,1.70
2023-02-06T08:44:12.972Z,1.64
2023-02-06T08:46:40.324Z,1.69
2023-02-06T08:49:12.291Z,1.77
2023-02-06T08:51:38.750Z,1.83
2023-02-06T08:54:08.613Z,1.85
2023-02-06T08:56:36.726Z,1.88
2023-02-06T08:59:04.288Z,1.84
2023-02-06T09:01:33.668Z,1.72
2023-02-06T09:04:02.680Z,1.63
2023-02-06T09:06:29.708Z,1.58
2023-02-06T09:08:57.032Z,1.51
2023-02-06T09:11:25.622Z,1.45
2023-02-06T09:13:58.680Z,1.34
2023-02-06T09:16:27.211Z,1.29
2023-02-06T09:18:54.756Z,1.30
2023-02-06T09:21:23.958Z,1.40
2023-02-06T09:23:56.031Z,1.45
2023-02-06T09:26:24.934Z,1.53
2023-02-06T09:28:52.865Z,1.62
2023-02-06T09:31:20.121Z,1.63
2023-02-06T09:33:46.543Z,1.60
2023-02-06T09:36:19.934Z,1.63
2023-02-06T09:38:49.199Z,1.66
2023-02-06T09:41:43.807Z,1.67
2023-02-06T09:44:10.172Z,1.61
2023-02-06T09:46:43.205Z,1.52
2023-02-06T09:49:21.575Z,1.50
2023-02-06T09:52:29.001Z,1.42
2023-02-06T09:55:20.416Z,1.34
2023-02-06T09:58:01.809Z,1.36
2023-02-06T10:01:04.167Z,1.37
2023-02-06T10:03:52.794Z,1.38
2023-02-06T10:06:36.735Z,1.39
2023-02-06T10:09:11.421Z,1.44
2023-02-06T10:11:56.207Z,1.47
2023-02-06T10:14:31.680Z,1.50
2023-02-06T10:17:02.925Z,1.55
2023-02-06T10:19:39.967Z,1.57
2023-02-06T10:22:21.038Z,1.64
2023-02-06T10:25:11.497Z,1.66
2023-02-06T10:27:41.728Z,1.68
2023-02-06T10:30:17.783Z,1.57
2023-02-06T10:32:54.296Z,1.42
2023-02-06T10:35:30.696Z,1.49
2023-02-06T10:38:35.077Z,1.51
2023-02-06T10:41:31.386Z,1.39
2023-02-06T10:44:01.736Z,1.32
2023-02-06T10:46:48.162Z,1.31
2023-02-06T10:49:24.829Z,1.28
2023-02-06T10:51:54.872Z,1.27
2023-02-06T10:54:27.430Z,1.31
2023-02-06T10:56:56.896Z,1.34
2023-02-06T10:59:37.612Z,1.40
2023-02-06T11:02:20.353Z,1.30
2023-02-06T11:05:04.193Z,1.24
2023-02-06T11:07:37.271Z,1.20
2023-02-06T11:10:05.209Z,1.24
2023-02-06T11:12:37.139Z,1.19
2023-02-06T11:15:36.117Z,1.23
2023-02-06T11:18:06.637Z,1.19
2023-02-06T11:20:36.949Z,1.20
2023-02-06T11:23:21.910Z,1.08
2023-02-06T11:25:58.458Z,1.07
2023-02-06T11:28:26.022Z,1.06
2023-02-06T11:31:04.379Z,1.14
2023-02-06T11:33:49.064Z,1.18
2023-02-06T11:36:32.621Z,1.16
2023-02-06T11:39:20.205Z,1.20
2023-02-06T11:41:58.690Z,1.23
2023-02-06T11:44:27.063Z,1.24
2023-02-06T11:46:53.613Z,1.28
2023-02-06T11:49:28.956Z,1.37
2023-02-06T11:51:59.965Z,1.42
2023-02-06T11:54:29.623Z,1.48
2023-02-06T11:57:16.249Z,1.55
2023-02-06T11:59:54.924Z,1.53
2023-02-06T12:02:34.907Z,1.50
2023-02-06T12:05:12.765Z,1.50
2023-02-06T12:07:49.813Z,1.49
2023-02-06T12:10:19.151Z,1.56
2023-02-06T12:12:51.602Z,1.63
2023-02-06T12:15:46.985Z,1.66
2023-02-06T12:18:28.967Z,1.59
2023-02-06T12:21:16.433Z,1.61
2023-02-06T12:23:49.725Z,1.64
2023-02-06T12:26:19.878Z,1.60
2023-02-06T12:28:59.459Z,1.72
2023-02-06T12:31:41.627Z,1.83
2023-02-06T12:34:16.953Z,1.83
2023-02-06T12:37:00.218Z,1.82
2023-02-06T12:39:31.934Z,1.78
2023-02-06T12:42:20.393Z,1.70
2023-02-06T12:44:53.000Z,1.64
2023-02-06T12:47:25.296Z,1.63
2023-02-06T12:49:58.463Z,1.60
2023-02-06T12:52:31.102Z,1.56
2023-02-06T12:55:14.777Z,1.48
2023-02-06T12:57:42.073Z,1.36
2023-02-06T13:00:34.604Z,1.27
2023-02-06T13:03:20.910Z,1.18
2023-02-06T13:05:50.735Z,1.15
2023-02-06T13:08:27.369Z,1.25
2023-02-06T13:11:21.409Z,1.30
2023-02-06T13:13:52.636Z,1.29
2023-02-06T13:16:19.203Z,1.30
2023-02-06T13:18:50.423Z,1.33
2023-02-06T13:21:29.687Z,1.38
2023-02-06T13:24:02.156Z,1.41
2023-02-06T13:26:43.877Z,1.39
2023-02-06T13:29:26.585Z,1.29
2023-02-06T13:32:18.346Z,1.25
2023-02-06T13:34:44.789Z,1.26
2023-02-06T13:37:34.442Z,1.26
2023-02-06T13:40:22.837Z,1.22
2023-02-06T13:43:07.691Z,1.21
2023-02-06T13:45:46.682Z,1.15
2023-02-06T13:48:50.629Z,1.19
2023-02-06T13:51:30.672Z,1.27
2023-02-06T13:54:28.253Z,1.34
2023-02-06T13:57:23.377Z,1.44
2023-02-06T13:59:54.763Z,1.55
2023-02-06T14:02:21.069Z,1.63
2023-02-06T14:04:48.333Z,1.68
2023-02-06T14:07:34.969Z,1.72
2023-02-06T14:10:16.656Z,1.71
2023-02-06T14:12:57.958Z,1.65
2023-02-06T14:15:49.119Z,1.65
2023-02-06T14:18:29.165Z,1.65
2023-02-06T14:21:13.795Z,1.65
2023-02-06T14:23:58.480Z,1.72
2023-02-06T14:26:42.345Z,1.72
2023-02-06T14:29:30.348Z,1.72
2023-02-06T14:32:31.100Z,1.68
2023-02-06T14:35:17.385Z,1.66
2023-02-06T14:37:47.220Z,1.67
2023-02-06T14:40:21.252Z,1.67
2023-02-06T14:42:49.391Z,1.67
2023-02-06T14:45:42.028Z,1.66
2023-02-06T14:48:21.294Z,1.66
2023-02-06T14:50:52.395Z,1.66
2023-02-06T14:53:24.661Z,1.60
2023-02-06T14:55:51.150Z,1.55
2023-02-06T14:58:29.380Z,1.56
2023-02-06T15:01:10.567Z,1.57
2023-02-06T15:03:37.046Z,1.54
2023-02-06T15:06:05.332Z,1.50
2023-02-06T15:08:33.527Z,1.51
2023-02-06T15:11:04.884Z,1.52
2023-02-06T15:13:35.832Z,1.45
2023-02-06T15:16:05.219Z,1.38
2023-02-06T15:18:35.468Z,1.40
2023-02-06T15:21:12.382Z,1.44
2023-02-06T15:24:07.599Z,1.42
2023-02-06T15:26:43.093Z,1.40
2023-02-06T15:29:19.805Z,1.37
2023-02-06T15:31:52.700Z,1.36
2023-02-06T15:34:22.739Z,1.36
2023-02-06T15:36:50.304Z,1.36
2023-02-06T15:39:17.931Z,1.34
2023-02-06T15:41:47.204Z,1.30
2023-02-06T15:44:19.433Z,1.23
2023-02-06T15:46:48.433Z,1.16
2023-02-06T15:49:31.797Z,1.11
2023-02-06T15:51:58.489Z,1.06
2023-02-06T15:54:27.440Z,1.04
2023-02-06T15:57:01.957Z,1.04
2023-02-06T15:59:28.657Z,1.03
2023-02-06T16:01:57.644Z,1.03
2023-02-06T16:04:29.981Z,1.02
2023-02-06T16:07:12.058Z,1.03
2023-02-06T16:09:42.789Z,0.98
2023-02-06T16:12:10.008Z,1.02
2023-02-06T16:14:41.164Z,1.02
2023-02-06T16:17:13.526Z,1.03
2023-02-06T16:19:44.873Z,1.04
2023-02-06T16:22:16.624Z,1.02
2023-02-06T16:24:43.106Z,0.94
2023-02-06T16:27:27.592Z,0.87
2023-02-06T16:29:57.282Z,0.80
2023-02-06T16:32:31.579Z,0.78
2023-02-06T16:34:58.125Z,0.74
2023-02-06T16:37:28.399Z,0.73
2023-02-06T16:39:55.064Z,0.72
2023-02-06T16:42:25.817Z,0.73
2023-02-06T16:44:58.340Z,0.68
2023-02-06T16:47:24.782Z,0.67
2023-02-06T16:49:51.993Z,0.68
2023-02-06T16:52:28.960Z,0.68
2023-02-06T16:54:58.827Z,0.67
2023-02-06T16:57:43.229Z,0.65
2023-02-06T17:00:22.474Z,0.65
2023-02-06T17:02:51.890Z,0.63
2023-02-06T17:05:20.599Z,0.64
2023-02-06T17:07:49.058Z,0.66
2023-02-06T17:10:16.430Z,0.68
2023-02-06T17:12:45.087Z,0.67
2023-02-06T17:15:17.588Z,0.72
2023-02-06T17:17:44.862Z,0.75
2023-02-06T17:20:29.524Z,0.79
2023-02-06T17:22:56.117Z,0.76
2023-02-06T17:25:22.565Z,0.80
2023-02-06T17:27:49.012Z,0.81
2023-02-06T17:30:21.213Z,0.82
2023-02-06T17:32:48.195Z,0.77
2023-02-06T17:35:15.381Z,0.79
2023-02-06T17:37:42.182Z,0.82
2023-02-06T17:40:11.627Z,0.85
2023-02-06T17:42:38.243Z,0.82
2023-02-06T17:45:04.896Z,0.82
2023-02-06T17:47:31.339Z,0.82
2023-02-06T17:49:57.878Z,0.81
2023-02-06T17:52:24.298Z,0.80
2023-02-06T17:54:51.077Z,0.80
2023-02-06T17:57:17.494Z,0.79
2023-02-06T17:59:43.920Z,0.79
2023-02-06T18:02:13.595Z,0.78
2023-02-06T18:04:40.231Z,0.80
2023-02-06T18:07:07.217Z,0.83
2023-02-06T18:09:33.600Z,0.81
2023-02-06T18:12:00.051Z,0.77
2023-02-06T18:14:26.546Z,0.77
2023-02-06T18:16:53.034Z,0.79
2023-02-06T18:19:23.843Z,0.82
2023-02-06T18:21:50.260Z,0.80
2023-02-06T18:24:16.816Z,0.79
2023-02-06T18:26:43.316Z,0.73
2023-02-06T18:29:09.704Z,0.72
2023-02-06T18:31:36.560Z,0.72
2023-02-06T18:34:07.715Z,0.70
2023-02-06T18:36:36.179Z,0.70
2023-02-06T18:39:03.161Z,0.71
2023-02-06T18:41:48.145Z,0.72
2023-02-06T18:44:14.642Z,0.73
2023-02-06T18:46:41.118Z,0.72
2023-02-06T18:49:07.839Z,0.71
2023-02-06T18:51:34.428Z,0.72
2023-02-06T18:54:01.129Z,0.70
2023-02-06T18:56:27.960Z,0.68
2023-02-06T18:58:55.377Z,0.67
2023-02-06T19:01:23.397Z,0.69
2023-02-06T19:03:50.873Z,0.67
2023-02-06T19:06:25.433Z,0.64
2023-02-06T19:08:51.798Z,0.65
2023-02-06T19:11:18.337Z,0.66
2023-02-06T19:13:44.774Z,0.66
2023-02-06T19:16:13.885Z,0.66
2023-02-06T19:18:43.007Z,0.67
2023-02-06T19:21:12.335Z,0.69
2023-02-06T19:23:39.741Z,0.69
2023-02-06T19:26:07.859Z,0.67
2023-02-06T19:28:36.598Z,0.66
2023-02-06T19:31:04.023Z,0.66
2023-02-06T19:33:32.132Z,0.64
2023-02-06T19:35:59.190Z,0.64
2023-02-06T19:38:25.748Z,0.62
2023-02-06T19:40:53.619Z,0.62
2023-02-06T19:43:20.444Z,0.63
2023-02-06T19:45:46.908Z,0.66
2023-02-06T19:48:13.854Z,0.69
2023-02-06T19:50:43.086Z,0.66
2023-02-06T19:53:09.878Z,0.64
2023-02-06T19:55:36.735Z,0.61
2023-02-06T19:58:03.179Z,0.59
2023-02-06T20:00:29.573Z,0.60
2023-02-06T20:02:55.965Z,0.58
2023-02-06T20:05:26.327Z,0.56
2023-02-06T20:07:53.844Z,0.54
2023-02-06T20:10:23.681Z,0.53
2023-02-06T20:12:50.855Z,0.51
2023-02-06T20:15:17.301Z,0.46
2023-02-06T20:17:43.773Z,0.49
2023-02-06T20:20:11.485Z,0.47
2023-02-06T20:22:39.842Z,0.47
2023-02-06T20:25:06.589Z,0.44
2023-02-06T20:27:33.025Z,0.43
2023-02-06T20:29:59.442Z,0.41
2023-02-06T20:32:25.998Z,0.34
2023-02-06T20:34:52.381Z,0.18
2023-02-06T20:37:18.878Z,0.15
2023-02-06T20:39:45.483Z,0.09
2023-02-06T20:42:11.872Z,0.01
2023-02-06T20:44:38.389Z,-0.09
2023-02-06T20:47:04.829Z,-0.18
2023-02-06T20:49:31.475Z,-0.25
2023-02-06T20:51:58.066Z,-0.32
2023-02-06T20:54:25.038Z,-0.36
2023-02-06T20:56:51.596Z,-0.40
2023-02-06T20:59:19.883Z,-0.43
2023-02-06T21:01:46.441Z,-0.46
2023-02-06T21:04:14.493Z,-0.51
2023-02-06T21:06:41.482Z,-0.51
2023-02-06T21:09:09.055Z,-0.56
2023-02-06T21:11:41.338Z,-0.58
2023-02-06T21:14:08.375Z,-0.60
2023-02-06T21:16:37.515Z,-0.62
2023-02-06T21:19:06.113Z,-0.65
2023-02-06T21:21:32.917Z,-0.66
2023-02-06T21:23:59.432Z,-0.69
2023-02-06T21:26:27.205Z,-0.70
2023-02-06T21:28:54.184Z,-0.71
2023-02-06T21:31:36.861Z,-0.70
2023-02-06T21:34:15.800Z,-0.69
2023-02-06T21:36:42.858Z,-0.70
2023-02-06T21:39:11.233Z,-0.69
2023-02-06T21:41:37.714Z,-0.70
2023-02-06T21:44:04.706Z,-0.71
2023-02-06T21:46:31.406Z,-0.78
2023-02-06T21:48:57.837Z,-0.90
2023-02-06T21:51:24.373Z,-1.03
2023-02-06T21:53:50.770Z,-1.09
2023-02-06T21:56:23.598Z,-1.17
2023-02-06T21:58:50.830Z,-1.28
2023-02-06T22:01:20.694Z,-1.33
2023-02-06T22:03:48.022Z,-1.35
2023-02-06T22:06:15.307Z,-1.37
2023-02-06T22:08:44.285Z,-1.37
2023-02-06T22:11:16.402Z,-1.40
2023-02-06T22:13:44.156Z,-1.46
2023-02-06T22:16:13.962Z,-1.45
2023-02-06T22:18:40.995Z,-1.45
2023-02-06T22:21:13.438Z,-1.49
2023-02-06T22:23:40.894Z,-1.54
2023-02-06T22:26:09.131Z,-1.60
2023-02-06T22:28:35.786Z,-1.61
2023-02-06T22:31:14.164Z,-1.70
2023-02-06T22:33:40.791Z,-1.75
2023-02-06T22:36:12.937Z,-1.81
2023-02-06T22:38:40.233Z,-1.84
2023-02-06T22:41:11.025Z,-1.81
2023-02-06T22:43:38.897Z,-1.76
2023-02-06T22:46:06.634Z,-1.76
2023-02-06T22:48:33.630Z,-1.79
2023-02-06T22:51:08.913Z,-1.77
2023-02-06T22:53:37.579Z,-1.75
2023-02-06T22:56:31.370Z,-1.71
2023-02-06T22:59:10.238Z,-1.71
2023-02-06T23:01:48.394Z,-1.67
2023-02-06T23:04:23.365Z,-1.63
2023-02-06T23:06:51.034Z,-1.61
2023-02-06T23:09:26.477Z,-1.58
2023-02-06T23:11:53.840Z,-1.57
2023-02-06T23:14:20.503Z,-1.56
2023-02-06T23:16:47.860Z,-1.56
2023-02-06T23:19:15.431Z,-1.55
2023-02-06T23:21:43.766Z,-1.55
2023-02-06T23:24:11.424Z,-1.57
2023-02-06T23:26:40.127Z,-1.58
2023-02-06T23:29:08.014Z,-1.54
2023-02-06T23:31:35.097Z,-1.52
2023-02-06T23:34:01.778Z,-1.54
2023-02-06T23:36:29.284Z,-1.57
2023-02-06T23:38:56.254Z,-1.54
2023-02-06T23:41:27.643Z,-1.48
2023-02-06T23:43:58.346Z,-1.46
2023-02-06T23:46:26.034Z,-1.50
2023-02-06T23:48:53.478Z,-1.53
2023-02-06T23:51:20.784Z,-1.56
2023-02-06T23:53:47.890Z,-1.56
2023-02-06T23:56:18.447Z,-1.57
2023-02-06T23:58:45.064Z,-1.66
